Time;durP1;ratioP1;P1;durP2;ratioP2;P2;SDS_P1;SDS_P2;PMS_P1;PMS_P2;Temp;Humidity;BMP_temperature;BMP_pressure;BME280_temperature;BME280_humidity;BME280_pressure;Samples;Min_cycle;Max_cycle;Signal;HPM_P1;HPM_P2
2022/03/02 00:02:56;;;;;;;;;;;22.30;29.30;;;;;;5066790;28;19947;-71
2022/03/02 00:05:24;;;;;;;;;;;22.20;29.30;;;;;;5069520;28;19970;-71
2022/03/02 00:07:51;;;;;;;;;;;22.20;29.30;;;;;;5066840;28;19925;-71
2022/03/02 00:10:18;;;;;;;;;;;22.20;29.30;;;;;;5068950;28;19924;-72
2022/03/02 00:12:45;;;;;;;;;;;22.20;29.20;;;;;;5066253;28;20380;-71
2022/03/02 00:15:12;;;;;;;;;;;22.20;29.20;;;;;;5068803;28;20319;-71
2022/03/02 00:17:40;;;;;;;;;;;22.20;29.30;;;;;;5066127;28;20451;-72
2022/03/02 00:20:07;;;;;;;;;;;22.20;29.70;;;;;;5100825;28;19982;-72
2022/03/02 00:22:34;;;;;;;;;;;22.20;29.30;;;;;;5065298;28;20337;-71
2022/03/02 00:27:56;;;;;;;;;;;22.20;29.30;;;;;;5066272;28;19924;-72
2022/03/02 00:30:26;;;;;;;;;;;22.20;29.30;;;;;;5069157;28;19970;-71
2022/03/02 00:32:54;;;;;;;;;;;22.20;29.30;;;;;;5066135;28;19947;-72
2022/03/02 00:35:21;;;;;;;;;;;22.20;29.30;;;;;;5068634;28;19981;-71
2022/03/02 00:37:48;;;;;;;;;;;22.20;29.30;;;;;;5065571;28;20394;-72
2022/03/02 00:40:15;;;;;;;;;;;22.20;29.30;;;;;;5068411;28;19970;-72
2022/03/02 00:42:44;;;;;;;;;;;22.20;29.30;;;;;;5081584;28;19928;-72
2022/03/02 00:45:11;;;;;;;;;;;22.20;29.30;;;;;;5068443;28;19935;-72
2022/03/02 00:47:38;;;;;;;;;;;22.20;29.30;;;;;;5066369;28;19924;-71
2022/03/02 00:52:57;;;;;;;;;;;22.20;29.20;;;;;;5065649;28;20170;-71
2022/03/02 00:55:25;;;;;;;;;;;22.20;29.20;;;;;;5069221;28;19928;-72
2022/03/02 00:57:52;;;;;;;;;;;22.20;29.20;;;;;;5069740;28;20546;-72
2022/03/02 01:00:19;;;;;;;;;;;22.20;29.20;;;;;;5072535;28;20392;-71
2022/03/02 01:02:46;;;;;;;;;;;22.20;29.20;;;;;;5069577;28;19932;-71
2022/03/02 01:05:13;;;;;;;;;;;22.30;29.20;;;;;;5072367;28;19925;-72
2022/03/02 01:07:40;;;;;;;;;;;22.20;29.20;;;;;;5070221;28;19933;-71
2022/03/02 01:10:08;;;;;;;;;;;22.20;29.20;;;;;;5072273;28;20280;-72
2022/03/02 01:12:35;;;;;;;;;;;22.20;29.20;;;;;;5070725;28;19968;-72
2022/03/02 01:15:29;;;;;;;;;;;22.20;29.20;;;;;;5071548;28;20025;-71
2022/03/02 01:17:55;;;;;;;;;;;22.20;29.20;;;;;;5069003;28;19989;-72
2022/03/02 01:20:22;;;;;;;;;;;22.20;29.20;;;;;;5072434;28;19929;-72
2022/03/02 01:22:49;;;;;;;;;;;22.20;29.20;;;;;;5069278;28;19925;-72
2022/03/02 01:25:16;;;;;;;;;;;22.20;29.20;;;;;;5071682;28;20321;-71
2022/03/02 01:27:43;;;;;;;;;;;22.20;29.20;;;;;;5069401;28;20036;-72
2022/03/02 01:30:11;;;;;;;;;;;22.20;29.20;;;;;;5071820;28;20135;-71
2022/03/02 01:32:38;;;;;;;;;;;22.20;29.20;;;;;;5069722;28;19932;-71
2022/03/02 01:35:05;;;;;;;;;;;22.20;29.20;;;;;;5071599;28;20373;-72
2022/03/02 01:37:32;;;;;;;;;;;22.20;29.20;;;;;;5069753;28;19924;-72
2022/03/02 01:39:59;;;;;;;;;;;22.20;29.20;;;;;;5071207;28;20108;-72
2022/03/02 01:42:26;;;;;;;;;;;22.10;29.20;;;;;;5069541;28;19982;-72
2022/03/02 01:44:53;;;;;;;;;;;22.20;29.20;;;;;;5071699;28;19925;-72
2022/03/02 01:47:20;;;;;;;;;;;22.20;29.20;;;;;;5069809;28;19979;-72
2022/03/02 01:52:55;;;;;;;;;;;22.20;29.20;;;;;;5068906;28;19925;-72
2022/03/02 01:55:22;;;;;;;;;;;22.10;29.20;;;;;;5071779;28;19925;-71
2022/03/02 01:57:50;;;;;;;;;;;22.10;29.20;;;;;;5068701;28;19924;-71
2022/03/02 02:00:18;;;;;;;;;;;22.10;29.20;;;;;;5071523;28;19974;-71
2022/03/02 02:02:46;;;;;;;;;;;22.10;29.60;;;;;;5069158;28;19924;-71
2022/03/02 02:05:14;;;;;;;;;;;22.10;29.20;;;;;;5071494;28;20385;-71
2022/03/02 02:07:41;;;;;;;;;;;22.10;29.20;;;;;;5068830;28;19925;-71
2022/03/02 02:10:09;;;;;;;;;;;22.10;29.20;;;;;;5071238;28;19932;-71
2022/03/02 02:12:36;;;;;;;;;;;22.10;29.20;;;;;;5068791;28;19968;-71
2022/03/02 02:17:57;;;;;;;;;;;22.10;29.20;;;;;;5068854;28;19924;-71
2022/03/02 02:20:25;;;;;;;;;;;22.10;29.20;;;;;;5071262;28;19978;-72
2022/03/02 02:22:52;;;;;;;;;;;22.10;29.20;;;;;;5068157;28;19925;-71
2022/03/02 02:25:20;;;;;;;;;;;22.10;29.20;;;;;;5071140;28;20069;-72
2022/03/02 02:27:47;;;;;;;;;;;22.10;29.20;;;;;;5068315;28;19928;-72
2022/03/02 02:30:15;;;;;;;;;;;22.10;29.20;;;;;;5070686;28;19986;-71
2022/03/02 02:32:42;;;;;;;;;;;22.10;29.20;;;;;;5067445;28;20466;-71
2022/03/02 02:35:10;;;;;;;;;;;22.10;29.20;;;;;;5070608;28;19993;-71
2022/03/02 02:37:37;;;;;;;;;;;22.10;29.20;;;;;;5068007;28;19924;-72
2022/03/02 02:40:06;;;;;;;;;;;22.10;29.20;;;;;;5070054;28;20335;-73
2022/03/02 02:42:34;;;;;;;;;;;22.10;29.20;;;;;;5101181;28;19925;-72
2022/03/02 02:45:02;;;;;;;;;;;22.10;29.20;;;;;;5070140;28;19939;-72
2022/03/02 02:47:29;;;;;;;;;;;22.10;29.20;;;;;;5068720;28;19951;-72
2022/03/02 02:53:02;;;;;;;;;;;22.10;29.10;;;;;;5067565;28;20016;-72
2022/03/02 02:55:29;;;;;;;;;;;22.10;29.10;;;;;;5069330;28;19925;-71
2022/03/02 02:57:57;;;;;;;;;;;22.10;29.20;;;;;;5067993;28;20592;-72
2022/03/02 03:00:26;;;;;;;;;;;22.10;29.20;;;;;;5070397;28;20003;-72
2022/03/02 03:02:54;;;;;;;;;;;22.10;29.20;;;;;;5067433;28;20466;-71
2022/03/02 03:05:23;;;;;;;;;;;22.00;29.10;;;;;;5070476;28;19963;-71
2022/03/02 03:07:51;;;;;;;;;;;22.00;29.10;;;;;;5067837;28;20090;-71
2022/03/02 03:10:18;;;;;;;;;;;22.00;29.10;;;;;;5070142;28;19964;-72
2022/03/02 03:12:46;;;;;;;;;;;22.00;29.10;;;;;;5068826;28;19929;-72
2022/03/02 03:15:15;;;;;;;;;;;22.00;29.10;;;;;;5070664;28;19928;-72
2022/03/02 03:17:42;;;;;;;;;;;22.00;29.20;;;;;;5067294;28;20389;-72
2022/03/02 03:20:10;;;;;;;;;;;22.00;29.20;;;;;;5069866;28;20352;-72
2022/03/02 03:22:37;;;;;;;;;;;22.00;29.20;;;;;;5067954;28;19978;-71
2022/03/02 03:27:56;;;;;;;;;;;22.00;29.20;;;;;;5066917;28;19928;-71
2022/03/02 03:30:24;;;;;;;;;;;22.00;29.20;;;;;;5069687;28;20085;-72
2022/03/02 03:32:51;;;;;;;;;;;22.00;29.20;;;;;;5067031;28;20225;-72
2022/03/02 03:35:19;;;;;;;;;;;22.00;29.20;;;;;;5069530;28;19924;-72
2022/03/02 03:37:47;;;;;;;;;;;22.00;29.20;;;;;;5067566;28;20320;-72
2022/03/02 03:40:15;;;;;;;;;;;21.90;29.20;;;;;;5069536;28;19948;-72
2022/03/02 03:42:43;;;;;;;;;;;21.90;29.20;;;;;;5066813;28;20455;-72
2022/03/02 03:45:10;;;;;;;;;;;21.90;29.20;;;;;;5101542;28;19925;-72
2022/03/02 03:47:38;;;;;;;;;;;21.90;29.30;;;;;;5066950;28;19928;-72
2022/03/02 03:52:56;;;;;;;;;;;21.90;29.30;;;;;;5066431;28;20504;-72
2022/03/02 03:55:24;;;;;;;;;;;21.90;29.30;;;;;;5069708;28;19925;-71
2022/03/02 03:57:51;;;;;;;;;;;21.90;29.30;;;;;;5066489;28;19979;-72
2022/03/02 04:00:18;;;;;;;;;;;21.90;29.30;;;;;;5069446;28;19971;-72
2022/03/02 04:02:46;;;;;;;;;;;21.90;29.40;;;;;;5066735;28;19928;-71
2022/03/02 04:05:13;;;;;;;;;;;21.90;29.40;;;;;;5068689;28;20366;-72
2022/03/02 04:07:44;;;;;;;;;;;21.90;29.40;;;;;;5066618;28;20050;-72
2022/03/02 04:10:13;;;;;;;;;;;21.90;29.40;;;;;;5069183;28;19951;-71
2022/03/02 04:12:40;;;;;;;;;;;21.90;29.40;;;;;;5066251;28;20014;-73
2022/03/02 04:15:07;;;;;;;;;;;21.90;29.40;;;;;;5068492;28;19979;-72
2022/03/02 04:17:34;;;;;;;;;;;21.90;29.50;;;;;;5067007;28;19925;-72
2022/03/02 04:20:02;;;;;;;;;;;21.90;29.50;;;;;;5068217;28;20366;-72
2022/03/02 04:22:29;;;;;;;;;;;21.90;29.50;;;;;;5066686;28;19978;-72
2022/03/02 04:28:00;;;;;;;;;;;21.90;29.50;;;;;;5065859;28;20401;-72
2022/03/02 04:30:30;;;;;;;;;;;21.90;29.50;;;;;;5068255;28;20340;-72
2022/03/02 04:32:57;;;;;;;;;;;21.90;29.50;;;;;;5065962;28;19950;-72
2022/03/02 04:35:25;;;;;;;;;;;21.90;29.50;;;;;;5068320;28;20101;-72
2022/03/02 04:37:52;;;;;;;;;;;21.90;29.50;;;;;;5064446;28;19925;-72
2022/03/02 04:40:19;;;;;;;;;;;21.80;29.60;;;;;;5048499;28;19937;-71
2022/03/02 04:42:46;;;;;;;;;;;21.90;29.60;;;;;;5063983;28;20435;-72
2022/03/02 04:45:13;;;;;;;;;;;21.90;29.60;;;;;;5068417;28;20340;-72
2022/03/02 04:47:40;;;;;;;;;;;21.90;29.70;;;;;;5059689;28;19977;-71
2022/03/02 04:52:56;;;;;;;;;;;21.90;29.70;;;;;;5066964;28;19932;-72
2022/03/02 04:55:23;;;;;;;;;;;21.80;29.70;;;;;;5067431;28;19928;-71
2022/03/02 04:57:53;;;;;;;;;;;21.80;29.70;;;;;;5063852;28;19928;-73
2022/03/02 05:00:21;;;;;;;;;;;21.80;29.70;;;;;;5064807;28;19977;-71
2022/03/02 05:02:48;;;;;;;;;;;21.80;29.70;;;;;;5065158;28;19975;-74
2022/03/02 05:05:16;;;;;;;;;;;21.80;29.70;;;;;;5068084;28;20349;-71
2022/03/02 05:07:43;;;;;;;;;;;21.80;29.70;;;;;;5066606;28;20007;-71
2022/03/02 05:10:11;;;;;;;;;;;21.80;29.70;;;;;;5101181;28;20320;-72
2022/03/02 05:12:39;;;;;;;;;;;21.80;29.70;;;;;;5066594;28;19925;-72
2022/03/02 05:18:28;;;;;;;;;;;21.80;29.70;;;;;;5068654;28;19920;-72
2022/03/02 05:20:55;;;;;;;;;;;21.80;29.70;;;;;;5068882;28;19963;-72
2022/03/02 05:23:22;;;;;;;;;;;21.80;29.70;;;;;;5066392;28;19925;-72
2022/03/02 05:25:50;;;;;;;;;;;21.80;29.70;;;;;;5068946;28;19928;-72
2022/03/02 05:28:17;;;;;;;;;;;21.80;29.70;;;;;;5066854;28;19994;-72
2022/03/02 05:30:44;;;;;;;;;;;21.80;29.70;;;;;;5069391;28;19978;-72
2022/03/02 05:33:11;;;;;;;;;;;21.80;29.80;;;;;;5066693;28;19925;-72
2022/03/02 05:35:38;;;;;;;;;;;21.80;29.70;;;;;;5069120;28;20077;-72
2022/03/02 05:38:05;;;;;;;;;;;21.70;29.70;;;;;;5066393;28;20105;-72
2022/03/02 05:40:32;;;;;;;;;;;21.70;29.70;;;;;;5066084;28;20015;-72
2022/03/02 05:42:59;;;;;;;;;;;21.80;29.80;;;;;;5065529;28;20019;-72
2022/03/02 05:45:26;;;;;;;;;;;21.70;29.70;;;;;;5069110;28;20340;-72
2022/03/02 05:47:53;;;;;;;;;;;21.80;29.70;;;;;;5070192;28;20023;-72
2022/03/02 05:50:20;;;;;;;;;;;21.70;29.70;;;;;;5089255;28;19924;-69
2022/03/02 05:52:47;;;;;;;;;;;21.80;29.70;;;;;;5085622;28;20366;-73
2022/03/02 06:02:18;;;;;;;;;;;21.80;29.60;;;;;;5074990;28;20277;-71
2022/03/02 06:04:47;;;;;;;;;;;21.80;29.60;;;;;;5067722;28;20003;-71
2022/03/02 06:07:14;;;;;;;;;;;21.80;29.50;;;;;;5073303;28;19924;-71
2022/03/02 06:09:42;;;;;;;;;;;21.80;29.40;;;;;;5071445;28;20007;-71
2022/03/02 06:12:09;;;;;;;;;;;21.80;29.30;;;;;;5076745;28;19994;-71
2022/03/02 06:18:01;;;;;;;;;;;21.80;29.30;;;;;;5071998;28;19942;-71
2022/03/02 06:20:28;;;;;;;;;;;21.80;29.30;;;;;;5069399;28;19978;-71
2022/03/02 06:22:55;;;;;;;;;;;21.80;29.30;;;;;;5059416;28;20286;-69
2022/03/02 06:25:22;;;;;;;;;;;21.80;29.20;;;;;;5068282;28;19986;-68
2022/03/02 06:27:49;;;;;;;;;;;21.80;29.30;;;;;;5071262;28;19978;-68
2022/03/02 06:30:16;;;;;;;;;;;21.80;29.30;;;;;;5069657;28;20239;-66
2022/03/02 06:32:43;;;;;;;;;;;21.90;29.30;;;;;;5067369;28;19928;-71
2022/03/02 06:35:11;;;;;;;;;;;21.90;29.30;;;;;;5066845;28;19924;-69
2022/03/02 06:37:38;;;;;;;;;;;22.00;29.20;;;;;;5068983;28;20316;-68
2022/03/02 06:40:10;;;;;;;;;;;21.90;29.10;;;;;;5068368;28;20299;-71
2022/03/02 06:42:59;;;;;;;;;;;22.10;29.20;;;;;;5059896;28;19933;-73
2022/03/02 06:45:46;;;;;;;;;;;22.10;29.20;;;;;;5065105;28;19924;-78
2022/03/02 06:48:17;;;;;;;;;;;22.20;29.30;;;;;;5067442;28;19928;-71
2022/03/02 06:50:45;;;;;;;;;;;22.30;29.60;;;;;;5067555;28;19936;-67
2022/03/02 06:53:13;;;;;;;;;;;22.30;30.00;;;;;;5060778;28;20016;-70
2022/03/02 06:55:44;;;;;;;;;;;22.40;30.20;;;;;;5068985;28;19924;-68
2022/03/02 06:58:12;;;;;;;;;;;22.50;30.00;;;;;;5070817;28;19970;-71
2022/03/02 07:00:39;;;;;;;;;;;22.50;30.00;;;;;;5066398;28;20213;-69
2022/03/02 07:03:10;;;;;;;;;;;22.60;29.90;;;;;;5063748;28;19928;-68
2022/03/02 07:05:38;;;;;;;;;;;22.70;29.70;;;;;;5069925;28;19928;-68
2022/03/02 07:08:05;;;;;;;;;;;22.80;29.50;;;;;;5069575;28;19970;-66
2022/03/02 07:10:33;;;;;;;;;;;22.90;29.20;;;;;;5071108;28;19933;-64
2022/03/02 07:13:04;;;;;;;;;;;22.90;28.90;;;;;;5067007;28;19959;-70
2022/03/02 07:15:31;;;;;;;;;;;23.00;28.80;;;;;;5082117;28;19971;-67
2022/03/02 07:17:59;;;;;;;;;;;23.00;28.60;;;;;;5069204;28;19969;-66
2022/03/02 07:20:27;;;;;;;;;;;23.10;28.50;;;;;;5070391;28;19924;-68
2022/03/02 07:22:55;;;;;;;;;;;23.20;28.50;;;;;;5068719;28;19936;-70
2022/03/02 07:25:24;;;;;;;;;;;23.20;28.40;;;;;;5070162;28;19994;-66
2022/03/02 07:27:53;;;;;;;;;;;23.30;28.30;;;;;;5069304;28;19924;-66
2022/03/02 07:30:21;;;;;;;;;;;23.40;28.20;;;;;;5070159;28;19977;-67
2022/03/02 07:32:48;;;;;;;;;;;23.40;28.10;;;;;;5068934;28;19929;-67
2022/03/02 07:35:16;;;;;;;;;;;23.50;28.00;;;;;;5068582;28;20015;-68
2022/03/02 07:37:44;;;;;;;;;;;23.60;28.00;;;;;;5070307;28;20389;-67
2022/03/02 07:40:12;;;;;;;;;;;23.60;27.90;;;;;;5066802;28;19932;-67
2022/03/02 07:42:39;;;;;;;;;;;23.70;28.30;;;;;;5066960;28;19924;-66
2022/03/02 07:45:06;;;;;;;;;;;23.70;27.80;;;;;;5053966;28;19924;-68
2022/03/02 07:47:33;;;;;;;;;;;23.80;27.70;;;;;;5049911;28;19948;-69
2022/03/02 07:50:00;;;;;;;;;;;23.80;27.70;;;;;;5049826;28;20431;-67
2022/03/02 07:52:28;;;;;;;;;;;23.90;27.80;;;;;;5049892;28;20439;-68
2022/03/02 07:54:58;;;;;;;;;;;24.00;27.90;;;;;;5060744;28;19951;-67
2022/03/02 07:57:28;;;;;;;;;;;24.10;27.80;;;;;;5066380;28;20014;-67
2022/03/02 07:59:57;;;;;;;;;;;24.10;27.90;;;;;;5066976;28;19924;-67
2022/03/02 08:02:24;;;;;;;;;;;24.10;27.90;;;;;;5068249;28;19978;-72
2022/03/02 08:04:52;;;;;;;;;;;24.20;28.00;;;;;;5054027;28;19935;-68
2022/03/02 08:07:20;;;;;;;;;;;24.30;28.30;;;;;;5049088;28;20366;-70
2022/03/02 08:09:47;;;;;;;;;;;24.40;28.50;;;;;;5048862;28;20378;-68
2022/03/02 08:12:14;;;;;;;;;;;24.40;28.50;;;;;;5047789;28;19964;-68
2022/03/02 08:14:42;;;;;;;;;;;24.40;28.40;;;;;;5063187;28;19978;-70
2022/03/02 08:17:09;;;;;;;;;;;24.40;28.40;;;;;;5068451;28;19925;-67
2022/03/02 08:19:37;;;;;;;;;;;24.40;28.30;;;;;;5067304;28;19924;-65
2022/03/02 08:22:05;;;;;;;;;;;24.50;28.40;;;;;;5049497;28;19974;-67
2022/03/02 08:24:32;;;;;;;;;;;24.40;28.30;;;;;;5064953;28;19979;-70
2022/03/02 08:27:01;;;;;;;;;;;24.40;28.40;;;;;;5067364;28;19970;-68
2022/03/02 08:29:33;;;;;;;;;;;24.40;28.50;;;;;;5068740;28;19948;-66
2022/03/02 08:32:02;;;;;;;;;;;24.40;28.50;;;;;;5069055;28;19924;-65
2022/03/02 08:34:34;;;;;;;;;;;24.40;28.40;;;;;;5062858;28;19928;-66
2022/03/02 08:37:01;;;;;;;;;;;24.40;28.40;;;;;;5061124;28;19939;-65
2022/03/02 08:39:29;;;;;;;;;;;24.40;28.40;;;;;;5059699;28;19932;-66
2022/03/02 08:41:56;;;;;;;;;;;24.40;28.40;;;;;;5059059;28;20418;-67
2022/03/02 08:44:23;;;;;;;;;;;24.40;28.40;;;;;;5059373;28;19977;-68
2022/03/02 08:46:50;;;;;;;;;;;24.40;28.40;;;;;;5058091;28;20751;-66
2022/03/02 08:49:19;;;;;;;;;;;24.40;28.40;;;;;;5058657;28;20319;-66
2022/03/02 08:51:50;;;;;;;;;;;24.40;28.40;;;;;;5059343;28;19979;-68
2022/03/02 08:54:18;;;;;;;;;;;24.40;28.40;;;;;;5054832;28;19925;-67
2022/03/02 08:56:46;;;;;;;;;;;24.40;28.40;;;;;;5059467;28;19982;-63
2022/03/02 08:59:14;;;;;;;;;;;24.40;28.40;;;;;;5065207;28;19960;-66
2022/03/02 09:01:43;;;;;;;;;;;24.40;28.40;;;;;;5059429;28;19932;-69
2022/03/02 09:04:15;;;;;;;;;;;24.40;28.40;;;;;;5062359;28;19970;-68
2022/03/02 09:06:43;;;;;;;;;;;24.40;28.40;;;;;;5069009;28;19924;-66
2022/03/02 09:09:10;;;;;;;;;;;24.50;28.50;;;;;;5064842;28;19924;-67
2022/03/02 09:11:43;;;;;;;;;;;24.50;28.50;;;;;;5069392;28;19924;-63
2022/03/02 09:14:10;;;;;;;;;;;24.50;28.40;;;;;;5069173;28;20270;-63
2022/03/02 09:16:39;;;;;;;;;;;24.60;28.40;;;;;;5068387;28;19978;-70
2022/03/02 09:19:07;;;;;;;;;;;24.60;28.30;;;;;;5069931;28;19925;-69
2022/03/02 09:21:34;;;;;;;;;;;24.60;28.20;;;;;;5073067;28;19928;-68
2022/03/02 09:24:01;;;;;;;;;;;24.60;28.10;;;;;;5071795;28;19978;-69
2022/03/02 09:26:30;;;;;;;;;;;24.70;28.20;;;;;;5072115;28;19924;-69
2022/03/02 09:29:01;;;;;;;;;;;24.70;28.10;;;;;;5065910;28;19967;-71
2022/03/02 09:31:28;;;;;;;;;;;24.70;28.00;;;;;;5052253;28;20349;-67
2022/03/02 09:33:56;;;;;;;;;;;24.60;27.80;;;;;;5047745;28;20309;-72
2022/03/02 09:36:24;;;;;;;;;;;24.60;27.80;;;;;;5051739;28;19924;-68
2022/03/02 09:38:53;;;;;;;;;;;24.60;27.80;;;;;;5058801;28;19959;-72
2022/03/02 09:41:29;;;;;;;;;;;24.60;27.80;;;;;;5071509;28;19924;-73
2022/03/02 09:43:57;;;;;;;;;;;24.60;27.80;;;;;;5071447;28;20419;-70
2022/03/02 09:46:30;;;;;;;;;;;24.60;27.90;;;;;;5071892;28;20545;-68
2022/03/02 09:49:01;;;;;;;;;;;24.60;27.80;;;;;;5070246;28;19925;-63
2022/03/02 09:51:30;;;;;;;;;;;24.60;27.80;;;;;;5071387;28;19928;-71
2022/03/02 09:53:58;;;;;;;;;;;24.60;27.80;;;;;;5071700;28;19978;-69
2022/03/02 09:56:29;;;;;;;;;;;24.60;27.60;;;;;;5072448;28;19964;-67
2022/03/02 09:58:57;;;;;;;;;;;24.50;27.50;;;;;;5070965;28;19924;-68
2022/03/02 10:01:25;;;;;;;;;;;24.60;27.40;;;;;;5063085;28;19964;-72
2022/03/02 10:03:53;;;;;;;;;;;24.50;27.30;;;;;;5093726;28;19932;-67
2022/03/02 10:06:23;;;;;;;;;;;24.50;27.30;;;;;;5063563;28;20031;-68
2022/03/02 10:08:51;;;;;;;;;;;24.50;27.20;;;;;;5093593;28;19940;-69
2022/03/02 10:11:20;;;;;;;;;;;24.50;27.20;;;;;;5060056;28;20334;-69
2022/03/02 10:13:47;;;;;;;;;;;24.50;27.30;;;;;;5060167;28;22917;-67
2022/03/02 10:16:20;;;;;;;;;;;24.60;27.20;;;;;;5063901;28;19932;-70
2022/03/02 10:18:55;;;;;;;;;;;24.50;27.20;;;;;;5062613;28;19928;-67
2022/03/02 10:21:27;;;;;;;;;;;24.50;27.20;;;;;;5064177;28;19932;-66
2022/03/02 10:23:59;;;;;;;;;;;24.50;27.00;;;;;;5062789;28;20298;-67
2022/03/02 10:26:28;;;;;;;;;;;24.60;27.00;;;;;;5069062;28;19928;-68
2022/03/02 10:29:03;;;;;;;;;;;24.60;26.80;;;;;;5072544;28;20352;-70
2022/03/02 10:34:31;;;;;;;;;;;24.50;26.80;;;;;;5068401;28;19925;-70
2022/03/02 10:37:07;;;;;;;;;;;24.50;26.60;;;;;;5070555;28;19925;-70
2022/03/02 10:39:54;;;;;;;;;;;24.60;26.70;;;;;;5071429;28;19978;-79
2022/03/02 10:42:25;;;;;;;;;;;24.60;26.50;;;;;;5055284;28;19976;-71
2022/03/02 10:44:57;;;;;;;;;;;24.60;26.50;;;;;;5068005;28;19928;-73
2022/03/02 10:47:25;;;;;;;;;;;24.60;26.60;;;;;;5070476;28;20432;-72
2022/03/02 10:49:52;;;;;;;;;;;24.60;26.50;;;;;;5069792;28;19930;-72
2022/03/02 10:52:21;;;;;;;;;;;24.70;26.70;;;;;;5068774;28;19933;-73
2022/03/02 10:54:49;;;;;;;;;;;24.70;26.70;;;;;;5066275;28;19936;-73
2022/03/02 10:57:18;;;;;;;;;;;24.70;26.70;;;;;;5103602;28;19979;-73
2022/03/02 10:59:45;;;;;;;;;;;24.80;26.60;;;;;;5070549;28;19998;-75
2022/03/02 11:02:12;;;;;;;;;;;24.80;26.60;;;;;;5071417;28;19932;-73
2022/03/02 11:04:43;;;;;;;;;;;24.80;26.50;;;;;;5065796;28;19925;-71
2022/03/02 11:07:11;;;;;;;;;;;24.90;26.30;;;;;;5070347;28;19932;-71
2022/03/02 11:09:55;;;;;;;;;;;24.90;26.40;;;;;;5070878;28;19925;-72
2022/03/02 11:12:23;;;;;;;;;;;24.90;26.40;;;;;;5069836;28;19974;-72
2022/03/02 11:14:56;;;;;;;;;;;24.90;26.40;;;;;;5078507;28;19959;-74
2022/03/02 11:17:23;;;;;;;;;;;24.90;26.50;;;;;;5089494;28;19931;-75
2022/03/02 11:19:54;;;;;;;;;;;24.90;26.40;;;;;;5090780;28;19924;-75
2022/03/02 11:22:22;;;;;;;;;;;25.00;26.30;;;;;;5089560;28;19931;-74
2022/03/02 11:24:54;;;;;;;;;;;25.00;26.70;;;;;;5074195;28;19931;-74
2022/03/02 11:27:29;;;;;;;;;;;25.00;26.00;;;;;;5070032;28;19924;-74
2022/03/02 11:30:16;;;;;;;;;;;25.00;26.00;;;;;;5068882;28;19962;-70
2022/03/02 11:32:44;;;;;;;;;;;25.00;25.90;;;;;;5067778;28;20267;-72
2022/03/02 11:35:19;;;;;;;;;;;25.00;25.80;;;;;;5056364;28;20011;-73
2022/03/02 11:37:56;;;;;;;;;;;25.00;25.80;;;;;;5049832;28;20370;-71
2022/03/02 11:40:36;;;;;;;;;;;25.00;25.80;;;;;;5049415;28;19924;-72
2022/03/02 11:43:21;;;;;;;;;;;25.00;25.70;;;;;;5052991;28;20301;-69
2022/03/02 11:45:56;;;;;;;;;;;25.10;25.70;;;;;;5069018;28;20373;-73
2022/03/02 11:48:24;;;;;;;;;;;25.10;25.70;;;;;;5069857;28;19986;-72
2022/03/02 11:51:02;;;;;;;;;;;25.00;25.60;;;;;;5085488;28;19924;-74
2022/03/02 11:53:34;;;;;;;;;;;25.00;25.60;;;;;;5069469;28;20289;-74
2022/03/02 11:56:01;;;;;;;;;;;25.00;25.40;;;;;;5063212;28;19943;-69
2022/03/02 11:58:48;;;;;;;;;;;25.00;25.40;;;;;;5059447;28;19943;-74
2022/03/02 12:01:40;;;;;;;;;;;25.00;25.80;;;;;;5060372;28;19943;-72
2022/03/02 12:04:26;;;;;;;;;;;25.00;25.50;;;;;;5089190;27;20035;-72
2022/03/02 12:06:55;;;;;;;;;;;25.00;25.50;;;;;;5060926;28;19951;-73
2022/03/02 12:09:30;;;;;;;;;;;25.00;25.50;;;;;;5063243;28;20394;-77
2022/03/02 12:12:20;;;;;;;;;;;25.00;25.70;;;;;;5060419;28;19943;-73
2022/03/02 12:14:54;;;;;;;;;;;25.00;25.90;;;;;;5063758;28;20403;-71
2022/03/02 12:17:22;;;;;;;;;;;25.00;25.90;;;;;;5092011;27;19925;-66
2022/03/02 12:19:51;;;;;;;;;;;25.10;26.00;;;;;;5065323;28;19970;-66
2022/03/02 12:22:18;;;;;;;;;;;25.10;25.90;;;;;;5061710;28;19924;-68
2022/03/02 12:24:46;;;;;;;;;;;25.20;25.80;;;;;;5063241;28;19974;-69
2022/03/02 12:27:15;;;;;;;;;;;25.20;25.70;;;;;;5063315;28;19969;-73
2022/03/02 12:29:42;;;;;;;;;;;25.20;25.50;;;;;;5062294;28;19924;-72
2022/03/02 12:32:14;;;;;;;;;;;25.20;25.40;;;;;;5060344;28;19971;-71
2022/03/02 12:34:43;;;;;;;;;;;25.20;25.50;;;;;;5064182;28;19925;-71
2022/03/02 12:37:11;;;;;;;;;;;25.30;25.60;;;;;;5058141;28;20389;-75
2022/03/02 12:39:39;;;;;;;;;;;25.30;25.70;;;;;;5054745;28;20377;-76
2022/03/02 12:42:08;;;;;;;;;;;25.30;25.80;;;;;;5052614;28;19937;-72
2022/03/02 12:44:39;;;;;;;;;;;25.30;25.90;;;;;;5060706;28;19925;-75
2022/03/02 12:47:08;;;;;;;;;;;25.30;26.10;;;;;;5063650;28;19932;-72
2022/03/02 12:49:36;;;;;;;;;;;25.30;26.30;;;;;;5064926;28;19924;-72
2022/03/02 12:52:04;;;;;;;;;;;25.20;26.20;;;;;;5067897;28;19931;-74
2022/03/02 12:54:33;;;;;;;;;;;25.20;26.20;;;;;;5064532;28;19971;-73
2022/03/02 12:57:02;;;;;;;;;;;25.20;26.10;;;;;;5068266;28;19924;-73
2022/03/02 12:59:30;;;;;;;;;;;25.20;26.00;;;;;;5064036;28;19925;-71
2022/03/02 13:01:57;;;;;;;;;;;25.10;25.80;;;;;;5068184;28;19928;-70
2022/03/02 13:04:42;;;;;;;;;;;25.10;25.90;;;;;;5068012;28;19970;-72
2022/03/02 13:07:13;;;;;;;;;;;25.10;25.90;;;;;;5068082;28;19924;-75
2022/03/02 13:09:44;;;;;;;;;;;25.10;25.90;;;;;;5057284;28;19924;-77
2022/03/02 13:12:29;;;;;;;;;;;25.10;25.80;;;;;;5048226;28;19932;-73
2022/03/02 13:14:56;;;;;;;;;;;25.10;25.80;;;;;;5048259;28;20386;-74
2022/03/02 13:17:24;;;;;;;;;;;25.00;25.50;;;;;;5050142;28;19932;-73
2022/03/02 13:19:59;;;;;;;;;;;25.00;25.40;;;;;;5064955;28;19928;-69
2022/03/02 13:22:34;;;;;;;;;;;25.00;25.30;;;;;;5069001;28;19970;-73
2022/03/02 13:25:04;;;;;;;;;;;25.00;25.20;;;;;;5069195;28;20384;-69
2022/03/02 13:27:31;;;;;;;;;;;25.00;25.10;;;;;;5066800;28;19937;-70
2022/03/02 13:30:08;;;;;;;;;;;25.00;25.00;;;;;;5063252;28;19924;-71
2022/03/02 13:32:52;;;;;;;;;;;24.90;25.20;;;;;;5068639;28;19931;-74
2022/03/02 13:35:52;;;;;;;;;;;24.90;25.40;;;;;;5068657;28;20007;-71
2022/03/02 13:38:19;;;;;;;;;;;24.90;25.60;;;;;;5068712;28;19978;-73
2022/03/02 13:40:48;;;;;;;;;;;24.90;25.60;;;;;;5063274;28;20444;-70
2022/03/02 13:43:37;;;;;;;;;;;24.90;25.70;;;;;;5057501;28;19982;-71
2022/03/02 13:46:17;;;;;;;;;;;24.90;25.60;;;;;;5049124;28;19925;-71
2022/03/02 13:52:07;;;;;;;;;;;24.90;25.50;;;;;;5060646;28;19923;-71
2022/03/02 13:54:34;;;;;;;;;;;24.90;25.30;;;;;;5058911;28;19925;-71
2022/03/02 13:57:02;;;;;;;;;;;24.90;25.20;;;;;;5066884;28;19924;-73
2022/03/02 13:59:29;;;;;;;;;;;24.90;25.10;;;;;;5061782;28;19970;-72
2022/03/02 14:01:56;;;;;;;;;;;24.90;25.00;;;;;;5053777;28;19986;-71
2022/03/02 14:08:05;;;;;;;;;;;24.90;25.20;;;;;;5071545;28;20070;-69
2022/03/02 14:10:38;;;;;;;;;;;24.90;25.30;;;;;;5069099;28;19952;-67
2022/03/02 14:13:06;;;;;;;;;;;24.90;25.20;;;;;;5058403;28;19970;-68
2022/03/02 14:15:34;;;;;;;;;;;24.90;25.40;;;;;;5069972;28;20050;-69
2022/03/02 14:18:04;;;;;;;;;;;24.90;25.40;;;;;;5070959;28;19998;-67
2022/03/02 14:20:45;;;;;;;;;;;24.90;25.40;;;;;;5068172;28;19978;-68
2022/03/02 14:23:14;;;;;;;;;;;24.90;25.40;;;;;;5055621;28;19929;-69
2022/03/02 14:25:42;;;;;;;;;;;24.80;25.40;;;;;;5068691;28;19955;-67
2022/03/02 14:28:10;;;;;;;;;;;24.80;25.50;;;;;;5065060;28;19933;-68
2022/03/02 14:30:38;;;;;;;;;;;24.90;25.60;;;;;;5067081;28;20412;-68
2022/03/02 14:33:13;;;;;;;;;;;24.80;25.60;;;;;;5095182;27;20274;-68
2022/03/02 14:35:41;;;;;;;;;;;24.90;25.70;;;;;;5069586;28;19928;-72
2022/03/02 14:38:09;;;;;;;;;;;24.90;25.70;;;;;;5070556;28;19974;-70
2022/03/02 14:40:36;;;;;;;;;;;24.90;25.70;;;;;;5071537;28;19925;-71
2022/03/02 14:43:08;;;;;;;;;;;24.80;25.60;;;;;;5065679;28;19978;-69
2022/03/02 14:45:49;;;;;;;;;;;24.80;25.60;;;;;;5072527;28;19932;-73
2022/03/02 14:48:22;;;;;;;;;;;24.80;25.70;;;;;;5071523;28;19924;-68
2022/03/02 14:50:53;;;;;;;;;;;24.90;25.80;;;;;;5068382;28;20382;-67
2022/03/02 14:53:28;;;;;;;;;;;24.90;25.90;;;;;;5057907;28;19939;-69
2022/03/02 14:55:56;;;;;;;;;;;24.90;26.10;;;;;;5050207;28;19925;-66
2022/03/02 14:58:28;;;;;;;;;;;24.90;25.90;;;;;;5050558;28;19925;-66
2022/03/02 15:01:15;;;;;;;;;;;24.80;25.90;;;;;;5050378;28;19924;-68
2022/03/02 15:03:44;;;;;;;;;;;24.80;25.90;;;;;;5056125;28;20018;-66
2022/03/02 15:06:13;;;;;;;;;;;24.80;25.70;;;;;;5069486;28;19925;-67
2022/03/02 15:08:47;;;;;;;;;;;24.80;25.60;;;;;;5071675;28;19924;-67
2022/03/02 15:11:39;;;;;;;;;;;24.70;25.60;;;;;;5069485;28;19970;-67
2022/03/02 15:17:03;;;;;;;;;;;24.70;25.40;;;;;;5070762;28;19936;-67
2022/03/02 15:19:32;;;;;;;;;;;24.70;25.40;;;;;;5070597;28;19925;-67
2022/03/02 15:22:02;;;;;;;;;;;24.70;25.50;;;;;;5070217;28;19924;-66
2022/03/02 15:24:31;;;;;;;;;;;24.70;25.40;;;;;;5066549;28;19924;-64